Terminal Aerodrome Forecast
Issued by NWS Lake Charles, LA

Home | Current Version | Previous Version | Text Only | Print | Product List | Glossary On
Versions: 1 2 3 4 5 6 7 8 9 10 11 12 13 14 15 16
000
FTUS44 KLCH 182300
TAFLFT
TAF
KLFT 182321Z 1900/1924 04006KT P6SM VCSH OVC012
     FM190300 07005KT 5SM BR VCSH OVC011
     FM191100 04006KT 5SM -RA BR OVC005
     FM191800 03008KT 3SM RA BR VCTS OVC007CB=

USA.gov is the U.S. government's official web portal to all federal, state and local government web resources and services.